createdAt,value
2018-12-03T00:07:42.007Z,13.2
2018-12-03T00:17:41.212Z,12.5
2018-12-03T00:27:40.414Z,12.8
2018-12-03T00:37:39.619Z,12.8
2018-12-03T00:47:38.818Z,13.2
2018-12-03T00:57:38.026Z,13.1
2018-12-03T01:07:37.226Z,12.5
2018-12-03T01:17:36.429Z,12.6
2018-12-03T01:27:35.624Z,12.9
2018-12-03T01:37:34.829Z,13.2
2018-12-03T01:47:34.044Z,13
2018-12-03T01:57:33.236Z,13.1
2018-12-03T02:07:32.481Z,12.7
2018-12-03T02:17:31.641Z,12.7
2018-12-03T02:27:30.834Z,12.3
2018-12-03T02:37:30.039Z,12.9
2018-12-03T02:47:29.248Z,13
2018-12-03T02:57:28.448Z,12.5
2018-12-03T03:07:27.641Z,13
2018-12-03T03:17:26.847Z,13.2
2018-12-03T03:27:26.045Z,13.1
2018-12-03T03:37:25.253Z,13
2018-12-03T03:47:24.448Z,12.7
2018-12-03T03:57:23.659Z,12.6
2018-12-03T04:07:22.862Z,12.8
2018-12-03T04:17:22.063Z,13.2
2018-12-03T04:27:21.269Z,13.2
2018-12-03T04:37:20.817Z,12.7
2018-12-03T04:47:19.688Z,12.9
2018-12-03T04:57:18.890Z,12.9
2018-12-03T05:07:18.102Z,13
2018-12-03T05:17:17.309Z,12.8
2018-12-03T05:27:16.562Z,13.2
2018-12-03T05:37:15.711Z,12.9
2018-12-03T05:47:14.920Z,13.1
2018-12-03T05:57:14.125Z,12.5
2018-12-03T06:07:13.332Z,13.1
2018-12-03T06:17:12.532Z,13.1
2018-12-03T06:27:11.736Z,12.6
2018-12-03T06:37:11.048Z,13.1
2018-12-03T06:47:10.138Z,13.1
2018-12-03T06:57:09.335Z,12.5
2018-12-03T07:07:08.545Z,13
2018-12-03T07:17:07.795Z,13.3
2018-12-03T07:27:06.945Z,12.5
2018-12-03T07:37:06.148Z,13.2
2018-12-03T07:47:05.343Z,13.2
2018-12-03T07:57:04.555Z,13.2
2018-12-03T08:07:03.746Z,13.2
2018-12-03T08:17:02.948Z,13.1
2018-12-03T08:27:02.160Z,13.1
2018-12-03T08:37:01.355Z,12.9
2018-12-03T08:47:00.550Z,13.1
2018-12-03T08:56:59.752Z,13.5
2018-12-03T09:06:58.953Z,13.3
2018-12-03T09:17:02.391Z,13.3
2018-12-03T09:26:57.360Z,13.6
2018-12-03T09:36:56.559Z,13.5
2018-12-03T09:46:55.752Z,13.3
2018-12-03T09:56:54.961Z,13.4
2018-12-03T10:06:54.165Z,13.9
2018-12-03T10:16:53.368Z,13.3
2018-12-03T10:26:52.555Z,13.6
2018-12-03T10:36:51.759Z,13.9
2018-12-03T10:46:50.961Z,14.3
2018-12-03T10:56:50.163Z,13.8
2018-12-03T11:06:49.366Z,14
2018-12-03T11:16:48.572Z,14.8
2018-12-03T11:26:47.771Z,14.7
2018-12-03T11:36:46.980Z,13.8
2018-12-03T11:46:46.180Z,14.7
2018-12-03T11:56:45.387Z,14.3
2018-12-03T12:06:44.587Z,14.7
2018-12-03T12:16:43.795Z,14.3
2018-12-03T12:26:43.002Z,14.5
2018-12-03T12:36:42.196Z,14.4
2018-12-03T12:46:41.397Z,13.8
2018-12-03T12:56:40.604Z,13.5
2018-12-03T13:06:39.807Z,12.7
2018-12-03T13:16:39.020Z,13.3
2018-12-03T13:26:38.208Z,13.4
2018-12-03T13:36:37.413Z,13.4
2018-12-03T13:46:36.623Z,12.7
2018-12-03T13:56:35.824Z,12.4
2018-12-03T14:06:35.020Z,13
2018-12-03T14:16:34.221Z,13.3
2018-12-03T14:26:33.422Z,12.6
2018-12-03T14:36:32.622Z,12.7
2018-12-03T14:46:31.832Z,12.7
2018-12-03T14:56:31.034Z,12.9
2018-12-03T15:06:30.239Z,13.2
2018-12-03T15:16:29.439Z,13.2
2018-12-03T15:26:28.665Z,13.3
2018-12-03T15:36:27.846Z,13
2018-12-03T15:46:27.054Z,13.2
2018-12-03T15:56:26.250Z,12.4
2018-12-03T16:06:25.455Z,12.7
2018-12-03T16:16:24.653Z,13.2
2018-12-03T16:26:23.852Z,12.9
2018-12-03T16:36:23.051Z,13
2018-12-03T16:46:22.259Z,13
2018-12-03T16:56:21.457Z,12.8
2018-12-03T17:06:20.668Z,13
2018-12-03T17:16:19.867Z,13
2018-12-03T17:26:19.068Z,12.5
2018-12-03T17:36:18.274Z,13.2
2018-12-03T17:46:17.478Z,13
2018-12-03T17:56:16.696Z,12.6
2018-12-03T18:06:17.101Z,13
2018-12-03T18:16:15.101Z,12.9
2018-12-03T18:26:14.309Z,13
2018-12-03T18:36:13.523Z,12.7
2018-12-03T18:46:12.728Z,12.6
2018-12-03T18:56:11.939Z,13.2
2018-12-03T19:06:11.143Z,12.9
2018-12-03T19:16:10.354Z,12.5
2018-12-03T19:26:09.564Z,12.4
2018-12-03T19:36:08.771Z,12.8
2018-12-03T19:46:07.976Z,12.9
2018-12-03T19:56:07.184Z,12.7
2018-12-03T20:06:06.397Z,13.2
2018-12-03T20:16:05.607Z,13.2
2018-12-03T20:26:04.984Z,12.7
2018-12-03T20:36:04.028Z,13.2
2018-12-03T20:46:03.237Z,12.9
2018-12-03T20:56:02.448Z,13
2018-12-03T21:06:01.651Z,12.6
2018-12-03T21:16:00.859Z,13
2018-12-03T21:26:00.062Z,12.5
2018-12-03T21:35:59.280Z,12.8
2018-12-03T21:45:58.475Z,12.7
2018-12-03T21:55:57.677Z,13
2018-12-03T22:05:56.891Z,12.5
2018-12-03T22:15:56.086Z,12.6
2018-12-03T22:25:55.301Z,12.7
2018-12-03T22:35:54.506Z,12.6
2018-12-03T22:45:53.704Z,12.7
2018-12-03T22:55:52.905Z,12.5
2018-12-03T23:05:52.111Z,12.6
2018-12-03T23:15:51.308Z,13.2
2018-12-03T23:25:50.526Z,12.5
2018-12-03T23:35:49.719Z,12.9
2018-12-03T23:45:48.924Z,12.5
2018-12-03T23:55:48.129Z,12.9
